Flight Track Log - Related Links

Times and Time Zones

All times are in EST time to prevent confusion due to time zone crossing. See the N607PA flight status page for this flight to view local times or setup timezone preferences in your user account.

Time Position Orientation Groundspeed Altitude Reporting Facility
EST Latitude Longitude Course Direction KTS MPH feet Rate Location/Type
Fri 08:46:06 PM 30.1469 -83.3008 116° Southeast 130 150 3,500  Level Jacksonville Center
Fri 08:47:05 PM 30.1344 -83.2600 109° East 130 150 3,500  Level Jacksonville Center
Fri 08:48:05 PM 30.1219 -83.2192 109° East 130 150 3,500  Level Jacksonville Center
Fri 08:49:05 PM 30.1117 -83.1808 107° East 130 150 3,500  Level Jacksonville Center
Fri 08:50:05 PM 30.0972 -83.1375 111° Southeast 130 150 3,500  Level Jacksonville Center
Fri 08:51:00 PM 29.9855 -83.2038 116° Southeast  Level Estimated
Fri 08:51:05 PM 30.0867 -83.0967 107° East 130 150 3,500  Level Jacksonville Center
Fri 08:52:05 PM 30.0744 -83.0558 109° East 130 150 3,500  Level Jacksonville Center
Fri 08:53:05 PM 30.0619 -83.0125 108° East 130 150 3,500  Level Jacksonville Center
Fri 08:54:05 PM 30.0494 -82.9717 109° East 130 150 3,500  Level Jacksonville Center
Fri 08:55:05 PM 30.0347 -82.9286 112° Southeast 130 150 3,500  Level Jacksonville Center
Fri 08:56:05 PM 30.0222 -82.8878 109° East 130 150 3,500  Level Jacksonville Center
Fri 08:57:05 PM 30.0117 -82.8447 106° East 130 150 3,500  Level Jacksonville Center
Fri 08:58:05 PM 29.9972 -82.8061 113° Southeast 130 150 3,500  Level Jacksonville Center
Fri 08:59:05 PM 29.9847 -82.7606 108° East 130 150 3,500  Level Jacksonville Center
Fri 09:00:05 PM 29.9719 -82.7200 110° East 130 150 3,500  Level Jacksonville Center
Fri 09:00:37 PM 29.9636 -82.7031 120° Southeast 135 155 3,500  Level Jacksonville Center
Fri 09:01:05 PM 29.9594 -82.6792 101° East 130 150 3,500  Level Jacksonville Center
Fri 09:01:26 PM 29.9553 -82.6697 117° Southeast 135 155 3,500  Level Jacksonville Center
Fri 09:02:05 PM 29.9489 -82.6383 103° East 130 150 3,500 100 Level Jacksonville Center
Fri 09:02:26 PM 29.9425 -82.6264 122° Southeast 135 155 3,600  Climbing Jacksonville Center
Fri 09:03:05 PM 29.9364 -82.5978 104° East 130 150 3,500 -98 Descending Jacksonville Center
Fri 09:03:27 PM 29.9281 -82.5858 129° Southeast 133 153 3,500  Level Jacksonville Center
Fri 09:04:05 PM 29.9236 -82.5594 101° East 130 150 3,500  Level Jacksonville Center
Fri 09:04:28 PM 29.9175 -82.5475 121° Southeast 133 153 3,500  Level Jacksonville Center
Fri 09:05:05 PM 29.9111 -82.5186 104° East 130 150 3,500  Level Jacksonville Center
Fri 09:05:28 PM 29.9069 -82.5044 109° East 133 153 3,500  Level Jacksonville Center
Fri 09:06:05 PM 29.8983 -82.4781 111° Southeast 130 150 3,500  Level Jacksonville Center
Fri 09:06:29 PM 29.8922 -82.4636 116° Southeast 133 153 3,500  Level Jacksonville Center
Fri 09:07:05 PM 29.8878 -82.4397 102° East 130 150 3,500  Level Jacksonville Center
Fri 09:07:30 PM 29.8814 -82.4231 114° Southeast 133 153 3,500  Level Jacksonville Center
Fri 09:08:05 PM 29.8753 -82.3992 106° East 130 150 3,500  Level Jacksonville Center
Fri 09:08:30 PM 29.8689 -82.3825 114° Southeast 132 152 3,500  Level Jacksonville Center
Fri 09:09:05 PM 29.8625 -82.3586 107° East 130 150 3,500  Level Jacksonville Center
Fri 09:09:37 PM 29.8561 -82.3369 109° East 135 155 3,500  Level Jacksonville Center
Fri 09:10:05 PM 29.8519 -82.3203 106° East 130 150 3,500  Level Jacksonville Center
Fri 09:10:37 PM 29.8433 -82.2964 113° Southeast 132 152 3,500  Level Jacksonville Center
Fri 09:11:38 PM 29.8306 -82.2581 111° Southeast 133 153 3,500  Level Jacksonville Center
Fri 09:12:39 PM 29.8181 -82.2150 108° East 132 152 3,500  Level Jacksonville Center
Fri 09:13:39 PM 29.8072 -82.1769 108° East 130 150 3,500  Level Jacksonville Center
Fri 09:14:40 PM 29.7925 -82.1386 114° Southeast 131 151 3,500  Level Jacksonville Center
Fri 09:15:40 PM 29.7839 -82.0981 104° East 131 151 3,500 50 Level Jacksonville Center
Fri 09:16:41 PM 29.7711 -82.0575 110° East 131 151 3,600  Climbing Jacksonville Center
Fri 09:17:42 PM 29.7561 -82.0169 113° Southeast 129 148 3,500 -50 Descending Jacksonville Center
Fri 09:18:42 PM 29.7456 -81.9811 109° East 129 148 3,500  Level Jacksonville Center
Fri 09:19:43 PM 29.7328 -81.9406 110° East 130 150 3,500  Level Jacksonville Center
Fri 09:20:38 PM 29.7200 -81.9050 112° Southeast 130 150 3,500  Level Jacksonville Center
Fri 09:21:38 PM 29.7111 -81.8642 104° East 131 151 3,500  Level Jacksonville Center
Fri 09:22:39 PM 29.7006 -81.8239 107° East 130 150 3,500  Level Jacksonville Center
Fri 09:23:40 PM 29.6856 -81.7833 113° Southeast 131 151 3,500  Level Jacksonville Center
Fri 09:24:41 PM 29.6725 -81.7453 112° Southeast 130 150 3,500  Level Jacksonville Center
Fri 09:25:42 PM 29.6619 -81.7072 108° East 129 148 3,500 -90 Level Jacksonville Center
Fri 09:25:48 PM 29.6597 -81.7047 136° Southeast 129 148 3,400 -71 Descending Jacksonville Center
Fri 09:27:07 PM 29.6342 -81.6597 123° Southeast 136 157 3,400 41 Level Jacksonville Center
Fri 09:28:13 PM 29.6047 -81.6242 134° Southeast 132 152 3,500 45 Climbing Jacksonville Center
Fri 09:29:20 PM 29.5794 -81.5936 134° Southeast 130 150 3,500 -45 Level Jacksonville Center
Fri 09:30:27 PM 29.5539 -81.5581 130° Southeast 132 152 3,400  Descending Jacksonville Center
Fri 09:31:33 PM 29.5264 -81.5203 130° Southeast 133 153 3,500 47 Climbing Jacksonville Center
Fri 09:32:34 PM 29.5031 -81.4894 131° Southeast 133 153 3,500  Level Jacksonville Center
Fri 09:33:35 PM 29.4778 -81.4564 131° Southeast 133 153 3,500  Level Jacksonville Center
Fri 09:34:17 PM 29.4628 -81.4353 129° Southeast 133 153 3,500  Level Jacksonville Center
Fri 09:35:18 PM 29.4353 -81.3997 132° Southeast 134 154 3,500  Level Jacksonville Center
Fri 09:36:19 PM 29.4119 -81.3669 129° Southeast 134 154 3,500  Level Jacksonville Center
Fri 09:37:20 PM 29.3886 -81.3339 129° Southeast 137 158 3,500  Level Jacksonville Center
Fri 09:38:21 PM 29.3631 -81.3008 132° Southeast 138 159 3,500  Level Jacksonville Center
Fri 09:39:27 PM 29.3333 -81.2633 132° Southeast 138 159 3,500  Level Jacksonville Center
Fri 09:40:28 PM 29.3058 -81.2281 132° Southeast 140 161 3,500  Level Jacksonville Center
Fri 09:41:29 PM 29.2825 -81.1950 129° Southeast 140 161 3,500  Level Jacksonville Center
Fri 09:42:36 PM 29.2464 -81.1647 144° Southeast 148 170 3,500 -295 Level Jacksonville Center
Fri 09:43:31 PM 29.2089 -81.1533 165° South 158 182 2,900 -524 Descending Jacksonville Center
Fri 09:44:19 PM 29.1758 -81.1803 215° Southwest 178 205 2,600 -406 Descending Jacksonville Center
Fri 09:45:44 PM 29.1461 -81.1450 134° Southeast 126 145 2,000 -643 Descending Jacksonville Center
Fri 09:46:39 PM 29.1561 -81.1164 68° East 93 107 1,100 -887 Descending Jacksonville Center
Fri 09:47:39 PM 29.1642 -81.0925 69° East 76 87 300 -800 Descending Jacksonville Center
Fri 09:49:00 PM 29.1667 -81.0500 128° Southeast  Level FlightAware Approximate
Fri 09:56:00 PM 29.1799 -81.0581 128° Southeast  Level Estimated
Fri 09:57:00 PM 29.1799 -81.0581 128° Southeast  Level Estimated
Fri 09:58:00 PM 29.1799 -81.0581 128° Southeast  Level Estimated

Login

Don't have an account? Register now (free) for customized features, flight alerts, and more!